createdAt,value
2023-02-04T06:02:06.654Z,11.00
2023-02-04T06:07:10.316Z,11.00
2023-02-04T06:12:13.875Z,11.00
2023-02-04T06:17:18.798Z,11.10
2023-02-04T06:22:24.434Z,11.10
2023-02-04T06:27:28.002Z,11.00
2023-02-04T06:32:32.965Z,11.00
2023-02-04T06:37:36.698Z,11.00
2023-02-04T06:42:40.284Z,11.00
2023-02-04T06:47:45.190Z,11.00
2023-02-04T06:52:49.224Z,11.00
2023-02-04T06:57:52.763Z,10.90
2023-02-04T07:02:58.642Z,10.90
2023-02-04T07:08:02.368Z,10.90
2023-02-04T07:13:05.908Z,10.90
2023-02-04T07:18:10.892Z,10.90
2023-02-04T07:23:14.436Z,11.00
2023-02-04T07:28:18.268Z,11.00
2023-02-04T07:33:23.647Z,11.10
2023-02-04T07:38:27.228Z,11.00
2023-02-04T07:43:30.797Z,11.10
2023-02-04T07:48:35.756Z,11.10
2023-02-04T07:53:39.411Z,11.10
2023-02-04T07:58:42.925Z,11.10
2023-02-04T08:03:47.970Z,11.10
2023-02-04T08:08:51.642Z,11.10
2023-02-04T08:13:55.288Z,11.10
2023-02-04T08:19:00.212Z,11.10
2023-02-04T08:24:03.795Z,11.20
2023-02-04T08:29:07.334Z,11.20
2023-02-04T08:34:12.296Z,11.30
2023-02-04T08:39:15.987Z,11.30
2023-02-04T08:44:19.593Z,11.30
2023-02-04T08:49:24.581Z,11.30
2023-02-04T08:54:30.635Z,11.30
2023-02-04T08:59:34.335Z,11.40
2023-02-04T09:04:39.333Z,11.40
2023-02-04T09:09:42.912Z,11.40
2023-02-04T09:14:46.558Z,11.50
2023-02-04T09:19:51.534Z,11.50
2023-02-04T09:24:55.122Z,11.50
2023-02-04T09:29:58.836Z,11.60
2023-02-04T09:35:03.796Z,11.70
2023-02-04T09:40:08.098Z,11.80
2023-02-04T09:45:17.099Z,11.70
2023-02-04T09:50:24.722Z,11.80
2023-02-04T09:55:31.504Z,11.80
2023-02-04T10:00:36.444Z,11.90
2023-02-04T10:05:41.501Z,11.90
2023-02-04T10:10:46.536Z,11.90
2023-02-04T10:15:51.554Z,12.00
2023-02-04T10:21:01.941Z,12.00
2023-02-04T10:26:06.319Z,12.10
2023-02-04T10:31:33.213Z,12.10
2023-02-04T10:36:38.906Z,12.20
2023-02-04T10:41:49.721Z,12.30
2023-02-04T10:47:00.891Z,12.30
2023-02-04T10:52:17.712Z,12.30
2023-02-04T10:57:24.392Z,12.40
2023-02-04T11:02:44.895Z,12.40
2023-02-04T11:07:50.854Z,12.40
2023-02-04T11:13:06.349Z,12.50
2023-02-04T11:18:11.837Z,12.50
2023-02-04T11:23:33.359Z,12.40
2023-02-04T11:29:10.294Z,12.40
2023-02-04T11:34:27.751Z,12.40
2023-02-04T11:39:37.438Z,12.40
2023-02-04T11:44:41.094Z,12.40
2023-02-04T11:49:46.391Z,12.40
2023-02-04T11:54:56.846Z,12.50
2023-02-04T12:00:01.621Z,12.50
2023-02-04T12:05:16.440Z,12.20
2023-02-04T12:10:28.212Z,12.50
2023-02-04T12:15:35.982Z,12.60
2023-02-04T12:20:40.378Z,12.60
2023-02-04T12:25:45.390Z,12.70
2023-02-04T12:30:49.243Z,12.70
2023-02-04T12:35:52.864Z,12.70
2023-02-04T12:40:57.845Z,12.70
2023-02-04T12:46:01.659Z,12.70
2023-02-04T12:51:05.609Z,12.70
2023-02-04T12:56:10.549Z,12.70
2023-02-04T13:01:14.198Z,12.70
2023-02-04T13:06:17.822Z,12.70
2023-02-04T13:11:23.057Z,12.80
2023-02-04T13:16:26.699Z,12.80
2023-02-04T13:21:31.327Z,12.80
2023-02-04T13:26:36.258Z,12.80
2023-02-04T13:31:39.906Z,12.70
2023-02-04T13:36:44.570Z,12.70
2023-02-04T13:41:49.527Z,12.70
2023-02-04T13:46:53.393Z,12.70
2023-02-04T13:51:57.004Z,12.70
2023-02-04T13:57:02.093Z,12.70
2023-02-04T14:02:05.745Z,12.70
2023-02-04T14:07:09.345Z,12.60
2023-02-04T14:12:14.296Z,12.70
2023-02-04T14:17:18.023Z,12.70
2023-02-04T14:22:21.929Z,12.60
2023-02-04T14:27:27.307Z,12.50
2023-02-04T14:32:30.965Z,12.50
2023-02-04T14:37:34.518Z,12.40
2023-02-04T14:42:39.752Z,12.40
2023-02-04T14:47:43.471Z,12.40
2023-02-04T14:52:47.036Z,12.30
2023-02-04T14:57:52.183Z,12.30
2023-02-04T15:02:55.740Z,12.30
2023-02-04T15:07:59.304Z,12.30
2023-02-04T15:13:04.327Z,12.20
2023-02-04T15:18:08.033Z,12.30
2023-02-04T15:23:13.144Z,12.20
2023-02-04T15:28:18.087Z,12.30
2023-02-04T15:33:21.726Z,12.30
2023-02-04T15:38:25.742Z,12.30
2023-02-04T15:43:30.733Z,12.30
2023-02-04T15:48:34.434Z,12.30
2023-02-04T15:53:38.037Z,12.20
2023-02-04T15:58:43.032Z,12.20
2023-02-04T16:03:47.292Z,12.20
2023-02-04T16:08:51.020Z,12.10
2023-02-04T16:13:58.795Z,12.10
2023-02-04T16:19:02.393Z,12.00
2023-02-04T16:24:06.766Z,12.00
2023-02-04T16:29:11.793Z,12.00
2023-02-04T16:34:15.527Z,11.80
2023-02-04T16:39:19.094Z,11.60
2023-02-04T16:44:24.421Z,11.60
2023-02-04T16:49:28.014Z,11.60
2023-02-04T16:54:32.278Z,11.70
2023-02-04T16:59:38.322Z,11.60
2023-02-04T17:04:41.960Z,11.60
2023-02-04T17:09:45.553Z,11.60
2023-02-04T17:14:50.510Z,11.60
2023-02-04T17:19:54.306Z,11.60
2023-02-04T17:24:57.842Z,11.60
2023-02-04T17:30:02.777Z,11.60
2023-02-04T17:35:06.806Z,11.50
2023-02-04T17:40:13.781Z,11.60
2023-02-04T17:45:19.221Z,11.60
2023-02-04T17:50:22.822Z,11.60
2023-02-04T17:55:28.688Z,11.50
2023-02-04T18:00:34.278Z,11.40
2023-02-04T18:05:38.660Z,11.40
2023-02-04T18:10:44.187Z,11.30
2023-02-04T18:15:53.196Z,11.30
2023-02-04T18:21:01.373Z,11.20
2023-02-04T18:26:13.134Z,11.20
2023-02-04T18:31:34.546Z,11.30
2023-02-04T18:36:38.716Z,11.30
2023-02-04T18:41:45.069Z,11.30
2023-02-04T18:46:50.052Z,11.30
2023-02-04T18:51:54.104Z,11.30
2023-02-04T18:57:17.289Z,11.40
2023-02-04T19:02:36.558Z,11.40
2023-02-04T19:07:40.194Z,11.40
2023-02-04T19:12:44.096Z,11.40
2023-02-04T19:17:49.183Z,11.40
2023-02-04T19:22:55.168Z,11.30
2023-02-04T19:28:00.281Z,11.30
2023-02-04T19:33:17.512Z,11.30
2023-02-04T19:38:39.996Z,11.30
2023-02-04T19:43:43.645Z,11.30
2023-02-04T19:48:49.403Z,11.30
2023-02-04T19:53:59.082Z,11.30
2023-02-04T19:59:22.988Z,11.40
2023-02-04T20:04:35.666Z,11.30
2023-02-04T20:09:39.233Z,11.30
2023-02-04T20:14:48.573Z,11.20
2023-02-04T20:19:53.982Z,11.20
2023-02-04T20:25:00.588Z,11.20
2023-02-04T20:30:24.597Z,11.20
2023-02-04T20:36:20.040Z,11.20
2023-02-04T20:41:25.101Z,11.10
2023-02-04T20:46:28.847Z,11.10
2023-02-04T20:51:35.559Z,11.10
2023-02-04T20:56:41.568Z,11.00
2023-02-04T21:01:47.048Z,10.90
2023-02-04T21:06:52.483Z,10.90
2023-02-04T21:11:58.570Z,10.90
2023-02-04T21:17:02.454Z,10.90
2023-02-04T21:22:06.061Z,10.90
2023-02-04T21:27:11.071Z,10.90
2023-02-04T21:32:14.923Z,10.90
2023-02-04T21:37:18.590Z,10.90
2023-02-04T21:42:23.836Z,11.00
2023-02-04T21:47:27.498Z,10.90
2023-02-04T21:52:31.045Z,10.90
2023-02-04T21:57:36.000Z,10.90
2023-02-04T22:02:39.619Z,10.90
2023-02-04T22:07:43.152Z,10.90
2023-02-04T22:12:48.432Z,10.90
2023-02-04T22:17:53.611Z,10.80
2023-02-04T22:22:57.487Z,10.80
2023-02-04T22:28:02.562Z,10.80
2023-02-04T22:33:06.272Z,10.80
2023-02-04T22:38:09.902Z,10.80
2023-02-04T22:43:14.861Z,10.90
2023-02-04T22:48:18.427Z,10.90
2023-02-04T22:53:22.086Z,10.80
2023-02-04T22:58:27.149Z,10.80
2023-02-04T23:03:30.711Z,10.80
2023-02-04T23:08:34.502Z,10.80
2023-02-04T23:13:39.728Z,10.90
2023-02-04T23:18:43.338Z,10.80
2023-02-04T23:23:47.083Z,10.80
2023-02-04T23:28:52.175Z,10.80
